Time;durP1;ratioP1;P1;durP2;ratioP2;P2;SDS_P1;SDS_P2;PMS_P1;PMS_P2;Temp;Humidity;BMP_temperature;BMP_pressure;BME280_temperature;BME280_humidity;BME280_pressure;Samples;Min_cycle;Max_cycle;Signal;HPM_P1;HPM_P2
2022/10/07 03:50:22;;;;;;;;;;;;;;;17.94;73.85;97808.09;4266525;22;10387;-68
2022/10/07 03:52:25;;;;;;;;;;;;;;;18.24;73.29;97812.84;4223121;27;5605;-70
2022/10/07 03:54:28;;;;;;;;;;;;;;;18.48;72.66;97814.72;4227837;27;5620;-68
2022/10/07 03:56:31;;;;;;;;;;;;;;;18.65;72.54;97806.16;4222716;27;5628;-68
2022/10/07 03:58:34;;;;;;;;;;;;;;;18.81;72.17;97810.97;4228733;28;5695;-67
2022/10/07 04:00:37;;;;;;;;;;;;;;;18.93;71.91;97805.69;4225367;27;5827;-68
2022/10/07 04:02:40;;;;;;;;;;;;;;;19.02;71.55;97807.84;4225059;28;5597;-67
2022/10/07 04:04:43;;;;;;;;;;;;;;;19.11;71.58;97805.69;4227603;28;5840;-68
2022/10/07 04:06:47;;;;;;;;;;;;;;;19.20;71.41;97805.19;4225221;28;5954;-68
2022/10/07 04:08:54;;;;;;;;;;;;;;;19.29;71.02;97803.03;4227423;28;5763;-66
2022/10/07 04:10:57;;;;;;;;;;;;;;;19.35;70.77;97801.28;4227225;28;5620;-67
2022/10/07 04:13:00;;;;;;;;;;;;;;;19.38;70.83;97808.91;4225056;28;6575;-67
2022/10/07 04:15:05;;;;;;;;;;;;;;;19.41;70.47;97806.59;4226444;28;5869;-67
2022/10/07 04:17:10;;;;;;;;;;;;;;;19.47;70.58;97811.03;4226671;28;7640;-68
2022/10/07 04:19:17;;;;;;;;;;;;;;;19.50;70.52;97807.13;4227923;28;5787;-66
2022/10/07 04:21:19;;;;;;;;;;;;;;;19.55;70.14;97803.75;4228552;28;5644;-67
2022/10/07 04:23:26;;;;;;;;;;;;;;;19.56;70.17;97803.53;4226279;28;5617;-67
2022/10/07 04:25:37;;;;;;;;;;;;;;;19.58;69.91;97796.09;4227459;28;5692;-67
2022/10/07 04:27:40;;;;;;;;;;;;;;;19.60;70.20;97798.56;4225923;28;5905;-68
2022/10/07 04:30:00;;;;;;;;;;;;;;;19.64;70.06;97808.59;4227964;28;5601;-68
2022/10/07 04:32:02;;;;;;;;;;;;;;;19.66;69.95;97797.66;4229178;28;5723;-68
2022/10/07 04:34:05;;;;;;;;;;;;;;;19.66;69.59;97793.09;4225380;28;6295;-67
2022/10/07 04:36:10;;;;;;;;;;;;;;;19.65;69.54;97802.19;4226149;28;5644;-68
2022/10/07 04:38:14;;;;;;;;;;;;;;;19.66;69.66;97797.66;4227409;28;5687;-67
2022/10/07 04:40:22;;;;;;;;;;;;;;;19.63;69.45;97800.78;4220616;28;5616;-67
2022/10/07 04:44:54;;;;;;;;;;;;;;;19.60;69.25;97802.06;4167614;28;5924;-68
2022/10/07 04:46:57;;;;;;;;;;;;;;;19.59;69.33;97803.09;4158259;28;5781;-69
2022/10/07 04:49:00;;;;;;;;;;;;;;;19.58;69.17;97796.09;4165987;28;5923;-69
2022/10/07 04:51:03;;;;;;;;;;;;;;;19.58;69.28;97798.78;4160057;28;5889;-68
2022/10/07 04:53:07;;;;;;;;;;;;;;;19.59;69.29;97802.28;4154143;28;5901;-69
2022/10/07 04:55:11;;;;;;;;;;;;;;;19.59;68.96;97800.41;4154373;28;5716;-69
2022/10/07 04:57:15;;;;;;;;;;;;;;;19.61;69.12;97805.56;4151395;28;5823;-69
2022/10/07 04:59:19;;;;;;;;;;;;;;;19.61;69.03;97801.03;4143291;28;5853;-69
2022/10/07 05:01:25;;;;;;;;;;;;;;;19.64;68.92;97805.09;4153905;28;5782;-69
2022/10/07 05:03:29;;;;;;;;;;;;;;;19.64;68.87;97800.56;4158090;28;5804;-68
2022/10/07 05:05:33;;;;;;;;;;;;;;;19.66;68.56;97803.81;4163061;28;5709;-69
2022/10/07 05:07:36;;;;;;;;;;;;;;;19.66;68.92;97797.66;4157799;28;6133;-68
2022/10/07 05:09:38;;;;;;;;;;;;;;;19.68;68.48;97800.91;4150870;28;5781;-69
2022/10/07 05:11:42;;;;;;;;;;;;;;;19.68;68.29;97801.72;4150998;28;5792;-70
2022/10/07 05:13:46;;;;;;;;;;;;;;;19.69;68.37;97791.81;4147292;28;5789;-67
2022/10/07 05:15:52;;;;;;;;;;;;;;;19.68;68.53;97787.50;4149358;28;5865;-69
2022/10/07 05:17:55;;;;;;;;;;;;;;;19.69;68.16;97792.63;4155391;28;5848;-68
2022/10/07 05:19:58;;;;;;;;;;;;;;;19.69;68.27;97803.38;4146286;28;5825;-68
2022/10/07 05:22:01;;;;;;;;;;;;;;;19.69;68.09;97792.63;4210433;28;6646;-68
2022/10/07 05:24:04;;;;;;;;;;;;;;;19.70;67.85;97794.28;4214028;28;5739;-68
2022/10/07 05:26:07;;;;;;;;;;;;;;;19.70;67.68;97788.91;4213991;28;5792;-70
2022/10/07 05:28:11;;;;;;;;;;;;;;;19.67;67.71;97789.38;4213948;28;5684;-69
2022/10/07 05:30:15;;;;;;;;;;;;;;;19.65;67.77;97801.38;4208387;28;5731;-68
2022/10/07 05:32:18;;;;;;;;;;;;;;;19.66;67.95;97797.66;4213489;28;5791;-67
2022/10/07 05:34:21;;;;;;;;;;;;;;;19.67;67.72;97805.47;4217783;28;5664;-68
2022/10/07 05:36:24;;;;;;;;;;;;;;;19.66;67.64;97798.47;4217431;28;5783;-68
2022/10/07 05:38:27;;;;;;;;;;;;;;;19.65;67.58;97796.00;4216594;28;5672;-67
2022/10/07 05:40:30;;;;;;;;;;;;;;;19.66;67.40;97797.66;4215762;28;5752;-67
2022/10/07 05:42:32;;;;;;;;;;;;;;;19.65;67.30;97804.06;4214577;28;5769;-67
2022/10/07 05:44:36;;;;;;;;;;;;;;;19.66;67.50;97793.09;4205448;28;5619;-67
2022/10/07 05:46:40;;;;;;;;;;;;;;;19.66;67.13;97793.09;4206879;28;5637;-67
2022/10/07 05:48:46;;;;;;;;;;;;;;;19.66;67.08;97798.47;4218596;28;5624;-68
2022/10/07 05:50:49;;;;;;;;;;;;;;;19.67;67.00;97799.28;4208341;28;5096;-68
2022/10/07 05:52:52;;;;;;;;;;;;;;;19.64;67.07;97797.06;4218424;28;5628;-68
2022/10/07 05:54:55;;;;;;;;;;;;;;;19.62;66.86;97797.28;4217826;28;5629;-68
2022/10/07 05:56:58;;;;;;;;;;;;;;;19.62;67.10;97799.97;4211952;28;6341;-68
2022/10/07 05:59:00;;;;;;;;;;;;;;;19.65;66.67;97796.00;4204762;28;5706;-67
2022/10/07 06:01:06;;;;;;;;;;;;;;;19.68;66.90;97795.56;4204611;28;7203;-68
2022/10/07 06:03:17;;;;;;;;;;;;;;;19.70;66.70;97793.44;4214307;28;5639;-69
2022/10/07 06:05:22;;;;;;;;;;;;;;;19.68;66.23;97801.72;4201863;28;5636;-71
2022/10/07 06:07:25;;;;;;;;;;;;;;;19.67;66.39;97799.28;4214846;28;5613;-69
2022/10/07 06:14:11;;;;;;;;;;;;;;;19.66;66.06;97793.09;4210920;28;5601;-71
2022/10/07 06:16:17;;;;;;;;;;;;;;;19.65;66.34;97796.81;4217009;28;5632;-71
2022/10/07 06:18:21;;;;;;;;;;;;;;;19.64;66.26;97795.19;4217842;28;5625;-71
2022/10/07 06:20:24;;;;;;;;;;;;;;;19.65;66.09;97788.78;4216825;28;5692;-71
2022/10/07 06:22:27;;;;;;;;;;;;;;;19.68;66.03;97793.69;4208091;28;6317;-72
2022/10/07 06:24:32;;;;;;;;;;;;;;;19.71;65.85;97787.06;4206920;28;5627;-71
2022/10/07 06:26:35;;;;;;;;;;;;;;;19.72;65.83;97791.38;4208937;28;5544;-71
2022/10/07 06:28:40;;;;;;;;;;;;;;;19.72;65.91;97788.72;4206289;28;5085;-71
2022/10/07 06:30:46;;;;;;;;;;;;;;;19.73;65.92;97785.78;4203335;28;5706;-71
2022/10/07 06:32:49;;;;;;;;;;;;;;;19.73;65.98;97787.66;4208532;28;5625;-71
2022/10/07 06:34:53;;;;;;;;;;;;;;;19.73;65.51;97787.66;4215589;28;5757;-71
2022/10/07 06:36:56;;;;;;;;;;;;;;;19.74;65.59;97787.44;4203926;28;5790;-71
2022/10/07 06:38:59;;;;;;;;;;;;;;;19.74;65.83;97794.66;4212169;28;5616;-71
2022/10/07 06:41:04;;;;;;;;;;;;;;;19.72;65.43;97791.38;4206853;28;5631;-70
2022/10/07 06:43:09;;;;;;;;;;;;;;;19.74;65.64;97795.47;4216543;28;6235;-71
2022/10/07 06:45:12;;;;;;;;;;;;;;;19.72;65.42;97797.56;4210545;28;5970;-71
2022/10/07 06:47:16;;;;;;;;;;;;;;;19.74;65.26;97800.84;4213350;28;8868;-71
2022/10/07 06:49:19;;;;;;;;;;;;;;;19.73;65.34;97793.03;4200478;28;5777;-71
2022/10/07 06:51:23;;;;;;;;;;;;;;;19.74;65.51;97805.38;4205830;28;5605;-70
2022/10/07 06:53:26;;;;;;;;;;;;;;;19.73;65.50;97814.50;4211026;28;5628;-70
2022/10/07 06:55:30;;;;;;;;;;;;;;;19.72;65.62;97815.53;4213392;28;5624;-71
2022/10/07 06:57:32;;;;;;;;;;;;;;;19.71;65.44;97817.41;4208810;28;5640;-70
2022/10/07 06:59:48;;;;;;;;;;;;;;;19.72;65.53;97813.66;4213222;28;5632;-67
2022/10/07 07:01:51;;;;;;;;;;;;;;;19.73;65.32;97815.31;4210031;28;5643;-67
2022/10/07 07:03:54;;;;;;;;;;;;;;;19.77;65.20;97816.47;4203882;28;5741;-68
2022/10/07 07:05:57;;;;;;;;;;;;;;;19.82;64.99;97814.97;4203318;28;5749;-67
2022/10/07 07:08:01;;;;;;;;;;;;;;;19.82;65.15;97821.19;4205813;28;5719;-66
2022/10/07 07:10:05;;;;;;;;;;;;;;;19.84;65.21;97810.22;4216962;28;5613;-67
2022/10/07 07:12:08;;;;;;;;;;;;;;;19.84;64.95;97819.09;4217165;28;5609;-67
2022/10/07 07:14:12;;;;;;;;;;;;;;;19.86;65.05;97818.84;4216873;28;5684;-67
2022/10/07 07:16:16;;;;;;;;;;;;;;;19.84;65.12;97816.41;4208402;28;5775;-67
2022/10/07 07:18:18;;;;;;;;;;;;;;;19.85;65.17;97815.34;4200560;28;5659;-67
2022/10/07 07:20:21;;;;;;;;;;;;;;;19.86;64.87;97810.81;4217154;28;5630;-67
2022/10/07 07:22:24;;;;;;;;;;;;;;;19.88;65.04;97816.75;4217139;28;5706;-67
2022/10/07 07:24:31;;;;;;;;;;;;;;;19.87;64.93;97813.25;4215354;28;6399;-67
2022/10/07 07:26:36;;;;;;;;;;;;;;;19.87;65.11;97820.50;4202232;28;5631;-67
2022/10/07 07:28:40;;;;;;;;;;;;;;;19.88;64.72;97822.13;4208390;28;6210;-68
2022/10/07 07:30:43;;;;;;;;;;;;;;;19.88;64.67;97819.44;4205689;28;5664;-68
2022/10/07 07:32:46;;;;;;;;;;;;;;;19.89;65.04;97821.06;4208418;28;5097;-68
2022/10/07 07:34:51;;;;;;;;;;;;;;;19.91;64.99;97821.66;4203888;28;5632;-71
2022/10/07 07:36:55;;;;;;;;;;;;;;;19.90;65.01;97823.53;4200140;28;5749;-71
2022/10/07 07:38:59;;;;;;;;;;;;;;;19.91;64.88;97817.09;4208217;28;5605;-71
2022/10/07 07:41:05;;;;;;;;;;;;;;;19.92;64.58;97824.09;4209804;28;5718;-69
2022/10/07 07:43:08;;;;;;;;;;;;;;;19.94;64.55;97821.22;4203889;28;5817;-70
2022/10/07 07:45:14;;;;;;;;;;;;;;;19.95;64.54;97814.81;4209912;28;5608;-70
2022/10/07 07:47:17;;;;;;;;;;;;;;;19.94;64.47;97811.31;4199973;28;5631;-68
2022/10/07 07:49:21;;;;;;;;;;;;;;;19.97;64.33;97818.06;4203572;28;5774;-67
2022/10/07 07:51:24;;;;;;;;;;;;;;;19.97;64.78;97815.41;4202150;28;5627;-69
2022/10/07 07:53:27;;;;;;;;;;;;;;;19.97;64.78;97816.22;4210693;28;6465;-68
2022/10/07 07:55:30;;;;;;;;;;;;;;;19.97;64.30;97818.91;4212867;28;6536;-69
2022/10/07 07:57:35;;;;;;;;;;;;;;;19.98;64.40;97812.47;4214777;28;5637;-69
2022/10/07 07:59:39;;;;;;;;;;;;;;;19.99;64.60;97818.66;4211006;28;5726;-70
2022/10/07 08:01:44;;;;;;;;;;;;;;;20.01;64.45;97819.25;4206328;28;5639;-71
2022/10/07 08:03:48;;;;;;;;;;;;;;;20.02;64.22;97823.56;4205931;28;5707;-71
2022/10/07 08:05:50;;;;;;;;;;;;;;;20.01;64.20;97819.25;4199603;28;5628;-70
2022/10/07 08:07:54;;;;;;;;;;;;;;;20.01;64.39;97824.63;4199495;28;5632;-70
2022/10/07 08:09:58;;;;;;;;;;;;;;;20.02;64.64;97823.56;4199091;28;5644;-70
2022/10/07 08:12:00;;;;;;;;;;;;;;;20.04;64.48;97818.78;4205822;28;5749;-70
2022/10/07 08:14:06;;;;;;;;;;;;;;;20.09;64.17;97821.63;4209933;28;5803;-71
2022/10/07 08:16:11;;;;;;;;;;;;;;;20.13;64.27;97814.72;4215725;28;5617;-70
2022/10/07 08:18:16;;;;;;;;;;;;;;;20.15;64.39;97818.00;4216846;28;5613;-71
2022/10/07 08:20:19;;;;;;;;;;;;;;;20.17;64.17;97813.25;4199893;28;5679;-72
2022/10/07 08:22:22;;;;;;;;;;;;;;;20.19;63.95;97810.34;4200756;28;5620;-71
2022/10/07 08:24:26;;;;;;;;;;;;;;;20.19;63.90;97816.50;4216778;28;6440;-70
2022/10/07 08:26:30;;;;;;;;;;;;;;;20.19;63.82;97821.88;4208941;28;5627;-72
2022/10/07 08:28:52;;;;;;;;;;;;;;;20.22;63.85;97818.72;4211665;28;5635;-71
2022/10/07 08:31:20;;;;;;;;;;;;;;;20.20;64.14;97815.47;4211622;28;5604;-71
2022/10/07 08:33:44;;;;;;;;;;;;;;;20.22;63.79;97816.03;4219866;28;5608;-71
2022/10/07 08:36:07;;;;;;;;;;;;;;;20.22;63.97;97807.19;4211556;28;5806;-71
2022/10/07 08:38:33;;;;;;;;;;;;;;;20.21;63.78;97810.91;4219868;28;5089;-69
2022/10/07 08:40:54;;;;;;;;;;;;;;;20.21;63.67;97816.28;4219631;28;5597;-70
2022/10/07 08:43:21;;;;;;;;;;;;;;;20.24;63.75;97810.44;4211163;28;5616;-70
2022/10/07 08:45:43;;;;;;;;;;;;;;;20.27;64.01;97802.78;4207704;28;5755;-70
2022/10/07 08:48:15;;;;;;;;;;;;;;;20.28;63.78;97807.09;4203012;28;5117;-70
2022/10/07 08:50:45;;;;;;;;;;;;;;;20.29;63.47;97803.34;4213692;28;5739;-70
2022/10/07 08:53:14;;;;;;;;;;;;;;;20.31;63.33;97806.63;4219881;28;5703;-71
2022/10/07 08:55:43;;;;;;;;;;;;;;;20.30;63.37;97804.97;4214459;28;5620;-71
2022/10/07 08:58:49;;;;;;;;;;;;;;;20.29;63.22;97795.28;4219812;28;5725;-70
2022/10/07 09:01:21;;;;;;;;;;;;;;;20.30;63.71;97798.81;4135855;28;5861;-69
2022/10/07 09:03:54;;;;;;;;;;;;;;;20.30;63.52;97799.63;4134881;28;5825;-71
2022/10/07 09:06:23;;;;;;;;;;;;;;;20.30;63.44;97788.88;4135129;28;5829;-71
2022/10/07 09:08:51;;;;;;;;;;;;;;;20.28;63.20;97790.97;4121211;28;5908;-71
2022/10/07 09:11:19;;;;;;;;;;;;;;;20.27;63.21;97789.34;4141961;28;5854;-70
2022/10/07 09:13:45;;;;;;;;;;;;;;;20.27;63.08;97789.34;4151245;28;6572;-70
2022/10/07 09:16:11;;;;;;;;;;;;;;;20.30;63.41;97791.56;4144169;28;6637;-71
2022/10/07 09:18:39;;;;;;;;;;;;;;;20.32;63.34;97788.63;4136787;28;5936;-71
2022/10/07 09:21:07;;;;;;;;;;;;;;;20.30;63.25;97788.88;4145127;28;5852;-70
2022/10/07 09:23:31;;;;;;;;;;;;;;;20.27;62.85;97783.97;4134524;28;5947;-71
2022/10/07 09:25:52;;;;;;;;;;;;;;;20.27;62.95;97781.28;4134502;28;5829;-71
2022/10/07 09:28:18;;;;;;;;;;;;;;;20.26;62.91;97773.44;4134654;28;5807;-71
2022/10/07 09:30:41;;;;;;;;;;;;;;;20.25;63.00;97774.50;4134391;28;5819;-71
2022/10/07 09:33:03;;;;;;;;;;;;;;;20.27;62.72;97777.75;4134458;28;5799;-71
2022/10/07 09:35:27;;;;;;;;;;;;;;;20.28;62.73;97777.56;4143706;28;5835;-71
2022/10/07 09:37:59;;;;;;;;;;;;;;;20.30;62.92;97767.41;4205835;28;5620;-71
2022/10/07 09:40:31;;;;;;;;;;;;;;;20.32;62.91;97776.03;4210979;28;5632;-71
2022/10/07 09:42:54;;;;;;;;;;;;;;;20.31;62.93;97765.53;4210170;28;5097;-71
2022/10/07 09:45:21;;;;;;;;;;;;;;;20.33;62.66;97772.28;4218881;28;5703;-71
2022/10/07 09:47:42;;;;;;;;;;;;;;;20.34;62.66;97767.75;4214996;28;5628;-70
2022/10/07 09:50:05;;;;;;;;;;;;;;;20.35;62.98;97762.13;4207850;28;5837;-71
2022/10/07 09:52:30;;;;;;;;;;;;;;;20.35;62.64;97762.13;4218242;28;5612;-70
2022/10/07 09:54:55;;;;;;;;;;;;;;;20.36;62.71;97754.88;4209485;28;5609;-71
2022/10/07 09:57:27;;;;;;;;;;;;;;;20.39;62.72;97753.63;4201404;28;5706;-72
2022/10/07 09:59:48;;;;;;;;;;;;;;;20.41;62.90;97754.22;4213412;28;5608;-72
2022/10/07 10:02:22;;;;;;;;;;;;;;;20.42;62.62;97751.31;4218417;28;5747;-71
2022/10/07 10:04:49;;;;;;;;;;;;;;;20.42;62.78;97748.63;4218414;28;5604;-71
2022/10/07 10:07:19;;;;;;;;;;;;;;;20.43;62.49;97749.44;4217232;28;5720;-72
2022/10/07 10:09:49;;;;;;;;;;;;;;;20.45;62.63;97752.72;4212369;28;5915;-71
2022/10/07 10:12:15;;;;;;;;;;;;;;;20.47;62.83;97748.75;4209009;28;5592;-72
2022/10/07 10:14:46;;;;;;;;;;;;;;;20.49;62.39;97745.81;4218148;28;5699;-71
2022/10/07 10:17:20;;;;;;;;;;;;;;;20.47;62.72;97742.56;4215043;28;5751;-70
2022/10/07 10:19:42;;;;;;;;;;;;;;;20.48;62.54;97736.94;4212012;28;5717;-73
2022/10/07 10:22:04;;;;;;;;;;;;;;;20.47;62.64;97735.31;4215040;28;5700;-73
2022/10/07 10:27:21;;;;;;;;;;;;;;;20.51;62.68;97733.00;4202107;28;5749;-73
2022/10/07 10:29:50;;;;;;;;;;;;;;;20.52;62.72;97723.88;4204183;28;5627;-74
2022/10/07 10:32:45;;;;;;;;;;;;;;;20.52;62.55;97716.66;4200592;28;6336;-74
2022/10/07 10:35:14;;;;;;;;;;;;;;;20.53;62.63;97717.47;4188383;28;5710;-73
2022/10/07 10:37:56;;;;;;;;;;;;;;;20.54;62.53;97716.41;4208900;28;5834;-74
2022/10/07 10:40:30;;;;;;;;;;;;;;;20.56;62.54;97714.31;4205586;28;6308;-74
2022/10/07 10:43:05;;;;;;;;;;;;;;;20.51;62.51;97708.81;4214228;28;5601;-75
2022/10/07 10:45:32;;;;;;;;;;;;;;;20.48;62.55;97711.97;4209059;28;5733;-75
2022/10/07 10:48:15;;;;;;;;;;;;;;;20.47;62.50;97710.31;4201286;28;5623;-73
2022/10/07 10:50:47;;;;;;;;;;;;;;;20.50;62.25;97707.16;4200923;28;5731;-73
2022/10/07 10:53:20;;;;;;;;;;;;;;;20.53;62.50;97712.09;4215071;28;5609;-73
2022/10/07 10:56:00;;;;;;;;;;;;;;;20.55;62.22;97697.38;4205459;28;5744;-73
2022/10/07 10:58:31;;;;;;;;;;;;;;;20.52;62.03;97694.34;4209700;28;6191;-73
2022/10/07 11:01:05;;;;;;;;;;;;;;;20.54;62.47;97692.22;4202182;28;5820;-73
2022/10/07 11:03:40;;;;;;;;;;;;;;;20.56;62.04;97692.81;4200556;28;5628;-73
2022/10/07 11:06:06;;;;;;;;;;;;;;;20.58;62.05;97683.47;4206198;28;5612;-73
2022/10/07 11:08:32;;;;;;;;;;;;;;;20.63;61.90;97688.16;4205632;28;5615;-73
2022/10/07 11:11:05;;;;;;;;;;;;;;;20.64;62.30;97684.41;4203432;28;5684;-73
2022/10/07 11:13:35;;;;;;;;;;;;;;;20.59;61.88;97673.53;4209993;28;5860;-73
2022/10/07 11:16:01;;;;;;;;;;;;;;;20.56;62.11;97684.75;4206408;28;5608;-73
2022/10/07 11:18:29;;;;;;;;;;;;;;;20.59;62.45;97678.91;4216194;28;6280;-72
2022/10/07 11:20:52;;;;;;;;;;;;;;;20.62;62.35;97673.09;4205138;28;5605;-72
2022/10/07 11:23:23;;;;;;;;;;;;;;;20.67;61.83;97673.19;4209129;28;5715;-73
2022/10/07 11:25:50;;;;;;;;;;;;;;;20.66;61.65;97666.16;4199967;28;5619;-73
2022/10/07 11:28:16;;;;;;;;;;;;;;;20.61;61.83;97668.72;4208076;28;5616;-73
2022/10/07 11:30:48;;;;;;;;;;;;;;;20.60;62.11;97661.72;4208455;28;5768;-73
2022/10/07 11:33:17;;;;;;;;;;;;;;;20.64;61.91;97649.47;4200262;28;5611;-73
2022/10/07 11:35:46;;;;;;;;;;;;;;;20.66;61.84;97646.56;4200580;28;6308;-73
2022/10/07 11:38:16;;;;;;;;;;;;;;;20.68;62.09;97647.94;4200044;28;5620;-74
2022/10/07 11:40:46;;;;;;;;;;;;;;;20.68;62.04;97637.19;4205989;28;5612;-74
2022/10/07 11:43:15;;;;;;;;;;;;;;;20.67;61.60;97632.88;4199969;28;5636;-72
2022/10/07 11:45:42;;;;;;;;;;;;;;;20.70;62.08;97636.94;4211329;28;6313;-71
2022/10/07 11:48:08;;;;;;;;;;;;;;;20.73;61.59;97626.56;4217118;28;5608;-72
2022/10/07 11:50:35;;;;;;;;;;;;;;;20.75;61.33;97629.00;4216791;28;5683;-72
2022/10/07 11:53:05;;;;;;;;;;;;;;;20.77;61.38;97621.53;4216778;28;5624;-71
2022/10/07 11:55:29;;;;;;;;;;;;;;;20.74;61.29;97613.94;4206820;28;5647;-71
2022/10/07 11:57:54;;;;;;;;;;;;;;;20.72;61.17;97606.09;4200408;28;5623;-72
2022/10/07 12:00:25;;;;;;;;;;;;;;;20.73;61.34;97605.06;4217612;28;5729;-72
2022/10/07 12:02:48;;;;;;;;;;;;;;;20.75;60.96;97594.91;4203866;28;5619;-71
2022/10/07 12:05:48;;;;;;;;;;;;;;;20.79;61.01;97593.34;4219465;28;6349;-72
2022/10/07 12:08:31;;;;;;;;;;;;;;;20.80;60.80;97589.63;4220231;28;5794;-72
2022/10/07 12:10:54;;;;;;;;;;;;;;;20.75;60.48;97581.47;4219975;28;5601;-72
2022/10/07 12:13:38;;;;;;;;;;;;;;;20.72;60.61;97576.53;4220446;28;5104;-71
2022/10/07 12:16:41;;;;;;;;;;;;;;;20.74;60.07;97569.09;4211712;28;5668;-71
2022/10/07 12:19:18;;;;;;;;;;;;;;;20.74;59.97;97561.03;4203303;28;5616;-71
2022/10/07 12:22:14;;;;;;;;;;;;;;;20.75;60.07;97559.16;4215345;28;5613;-72
2022/10/07 12:24:37;;;;;;;;;;;;;;;20.74;60.08;97558.34;4219735;28;5679;-72
2022/10/07 12:27:06;;;;;;;;;;;;;;;20.73;59.87;97551.34;4213749;28;5726;-69
2022/10/07 12:29:48;;;;;;;;;;;;;;;20.73;59.55;97543.28;4203175;28;5612;-70
2022/10/07 12:32:49;;;;;;;;;;;;;;;20.75;59.77;97543.03;4218767;28;5672;-70
2022/10/07 12:35:46;;;;;;;;;;;;;;;20.77;59.19;97539.03;4212414;28;5672;-71
2022/10/07 12:38:25;;;;;;;;;;;;;;;20.75;59.68;97533.09;4151251;28;5812;-71
2022/10/07 12:40:51;;;;;;;;;;;;;;;20.73;59.44;97527.16;4151249;28;5811;-70
2022/10/07 12:43:25;;;;;;;;;;;;;;;20.73;59.36;97524.47;4151618;28;5939;-72
2022/10/07 12:45:47;;;;;;;;;;;;;;;20.68;59.20;97524.34;4151652;28;5835;-72
2022/10/07 12:48:16;;;;;;;;;;;;;;;20.68;59.60;97520.84;4151581;28;5943;-72
2022/10/07 12:50:40;;;;;;;;;;;;;;;20.69;59.22;97515.22;4151144;28;5700;-71
2022/10/07 12:53:03;;;;;;;;;;;;;;;20.75;59.19;97516.97;4151580;28;5830;-71
2022/10/07 12:55:31;;;;;;;;;;;;;;;20.75;59.43;97511.59;4135068;28;5738;-71
2022/10/07 12:59:45;;;;;;;;;;;;;;;20.76;59.05;97505.16;4135139;28;5790;-71
2022/10/07 13:00:38;;;;;;;;;;;;;;;20.78;59.05;97499.56;4137424;28;5886;-72
2022/10/07 13:03:35;;;;;;;;;;;;;;;20.81;59.48;97499.88;4141368;28;6432;-71
2022/10/07 13:06:37;;;;;;;;;;;;;;;20.82;59.07;97493.44;4149339;28;5696;-70
2022/10/07 13:09:36;;;;;;;;;;;;;;;20.84;59.15;97485.97;4149843;28;5696;-69
2022/10/07 13:12:17;;;;;;;;;;;;;;;20.87;59.35;97484.69;4156031;28;5686;-69
2022/10/07 13:14:48;;;;;;;;;;;;;;;20.89;59.14;97477.19;4191872;28;5670;-70
2022/10/07 13:17:24;;;;;;;;;;;;;;;20.89;58.83;97472.63;4191009;28;5699;-69
2022/10/07 13:19:56;;;;;;;;;;;;;;;20.89;59.25;97469.13;4192854;28;5710;-69
2022/10/07 13:22:19;;;;;;;;;;;;;;;20.88;59.18;97465.63;4195290;28;7707;-69
2022/10/07 13:24:46;;;;;;;;;;;;;;;20.90;59.10;97460.81;4194444;28;5682;-69
2022/10/07 13:27:09;;;;;;;;;;;;;;;20.90;59.01;97455.44;4195506;28;5777;-70
2022/10/07 13:29:32;;;;;;;;;;;;;;;20.93;58.98;97465.69;4191378;28;5861;-70
2022/10/07 13:32:06;;;;;;;;;;;;;;;20.94;58.67;97461.13;4191711;28;5829;-69
2022/10/07 13:34:30;;;;;;;;;;;;;;;20.95;59.09;97457.38;4193669;28;5757;-69
2022/10/07 13:36:52;;;;;;;;;;;;;;;20.98;58.93;97450.72;4192349;28;5699;-71
2022/10/07 13:39:20;;;;;;;;;;;;;;;21.03;58.85;97451.63;4193801;28;5686;-70
2022/10/07 13:41:46;;;;;;;;;;;;;;;21.07;58.57;97452.78;4186274;28;5735;-70
2022/10/07 13:44:13;;;;;;;;;;;;;;;21.09;58.43;97441.78;4196287;28;5697;-71
2022/10/07 13:46:36;;;;;;;;;;;;;;;21.12;58.43;97435.91;4196616;28;6403;-70
2022/10/07 13:48:58;;;;;;;;;;;;;;;21.13;58.64;97438.34;4197529;28;5805;-70
2022/10/07 13:51:28;;;;;;;;;;;;;;;21.14;58.54;97434.59;4190807;28;5690;-71
2022/10/07 13:53:56;;;;;;;;;;;;;;;21.17;58.26;97435.97;4194983;28;5694;-72
2022/10/07 13:56:23;;;;;;;;;;;;;;;21.19;58.38;97428.50;4195957;28;5772;-70
2022/10/07 13:58:48;;;;;;;;;;;;;;;21.20;58.42;97427.44;4190019;28;5862;-70
2022/10/07 14:01:10;;;;;;;;;;;;;;;21.22;57.81;97423.44;4191298;28;5738;-70
2022/10/07 14:03:32;;;;;;;;;;;;;;;21.25;58.19;97419.44;4191742;28;5817;-70
2022/10/07 14:05:55;;;;;;;;;;;;;;;21.28;57.87;97418.16;4193036;28;5690;-69
2022/10/07 14:07:59;;;;;;;;;;;;;;;21.30;57.93;97411.50;4190262;28;5696;-70
2022/10/07 14:10:08;;;;;;;;;;;;;;;21.31;57.58;97405.03;4189566;28;5995;-71
2022/10/07 14:12:16;;;;;;;;;;;;;;;21.34;57.87;97407.25;4190818;28;5992;-69
2022/10/07 14:14:24;;;;;;;;;;;;;;;21.38;57.99;97407.53;4191048;28;6454;-71
2022/10/07 14:16:26;;;;;;;;;;;;;;;21.38;57.53;97400.28;4186934;28;5886;-70
2022/10/07 14:18:30;;;;;;;;;;;;;;;21.41;57.74;97397.13;4191186;28;5777;-68
2022/10/07 14:20:35;;;;;;;;;;;;;;;21.44;57.71;97393.13;4189407;28;5678;-69
2022/10/07 14:22:40;;;;;;;;;;;;;;;21.44;57.85;97395.81;4192254;28;5726;-69
2022/10/07 14:24:52;;;;;;;;;;;;;;;21.46;57.53;97393.69;4193710;28;5694;-70
2022/10/07 14:26:55;;;;;;;;;;;;;;;21.46;57.83;97391.81;4192697;28;5707;-69
2022/10/07 14:29:18;;;;;;;;;;;;;;;21.47;57.51;97382.66;4193661;28;5785;-69
2022/10/07 14:36:12;;;;;;;;;;;;;;;21.49;57.59;97380.53;4188285;28;6039;-70
2022/10/07 14:38:27;;;;;;;;;;;;;;;21.50;57.63;97375.97;4188154;28;5777;-70
2022/10/07 14:40:30;;;;;;;;;;;;;;;21.50;57.57;97376.78;4190021;28;5806;-70
2022/10/07 14:42:34;;;;;;;;;;;;;;;21.50;57.70;97374.09;4189023;28;5888;-70
2022/10/07 14:44:38;;;;;;;;;;;;;;;21.49;57.38;97364.41;4192848;28;5817;-70
2022/10/07 14:46:42;;;;;;;;;;;;;;;21.51;57.31;97378.41;4183789;28;5903;-70
2022/10/07 14:48:45;;;;;;;;;;;;;;;21.50;57.52;97368.72;4185329;28;5727;-70
2022/10/07 14:50:50;;;;;;;;;;;;;;;21.50;57.54;97366.03;4208667;28;5711;-70
2022/10/07 14:52:53;;;;;;;;;;;;;;;21.50;57.47;97357.97;4204736;28;6636;-69
2022/10/07 14:54:58;;;;;;;;;;;;;;;21.49;57.18;97361.72;4206569;28;5688;-69
2022/10/07 14:57:01;;;;;;;;;;;;;;;21.50;57.19;97354.47;4210009;28;5712;-70
2022/10/07 14:59:09;;;;;;;;;;;;;;;21.51;57.26;97356.09;4205102;28;5919;-69
2022/10/07 15:01:12;;;;;;;;;;;;;;;21.50;57.45;97346.38;4205358;28;5620;-70
2022/10/07 15:03:16;;;;;;;;;;;;;;;21.50;57.10;97352.56;4210209;28;5836;-70
2022/10/07 15:05:19;;;;;;;;;;;;;;;21.50;57.35;97349.88;4205563;28;5720;-70
2022/10/07 15:07:22;;;;;;;;;;;;;;;21.50;57.14;97341.00;4204029;28;5651;-71
2022/10/07 15:09:25;;;;;;;;;;;;;;;21.49;57.54;97342.88;4214183;28;5754;-70
2022/10/07 15:11:28;;;;;;;;;;;;;;;21.49;57.18;97334.81;4213208;28;5752;-70
2022/10/07 15:13:31;;;;;;;;;;;;;;;21.49;57.17;97340.19;4210923;28;5780;-71
2022/10/07 15:15:38;;;;;;;;;;;;;;;21.50;57.50;97338.31;4209114;28;5607;-73
2022/10/07 15:17:41;;;;;;;;;;;;;;;21.50;57.00;97341.81;4211025;28;5905;-70
2022/10/07 15:19:45;;;;;;;;;;;;;;;21.48;57.07;97341.25;4213129;28;5823;-70
2022/10/07 15:21:48;;;;;;;;;;;;;;;21.47;57.15;97334.25;4206449;28;5628;-71
2022/10/07 15:23:52;;;;;;;;;;;;;;;21.47;57.27;97336.94;4203071;28;5612;-71
2022/10/07 15:25:55;;;;;;;;;;;;;;;21.45;57.51;97333.69;4210784;28;6414;-72
2022/10/07 15:27:59;;;;;;;;;;;;;;;21.46;57.27;97329.94;4212066;28;5146;-71
2022/10/07 15:30:02;;;;;;;;;;;;;;;21.47;57.28;97334.25;4211950;28;5617;-70
2022/10/07 15:32:06;;;;;;;;;;;;;;;21.47;57.31;97323.50;4207988;28;5692;-71
2022/10/07 15:34:09;;;;;;;;;;;;;;;21.49;57.54;97321.38;4214326;28;5641;-71
2022/10/07 15:36:13;;;;;;;;;;;;;;;21.50;57.40;97320.28;4210792;28;7072;-71
2022/10/07 15:38:16;;;;;;;;;;;;;;;21.51;57.25;97316.53;4207558;28;5631;-71
2022/10/07 15:40:19;;;;;;;;;;;;;;;21.50;57.57;97322.19;4211930;28;5703;-71
2022/10/07 15:42:24;;;;;;;;;;;;;;;21.51;57.59;97326.50;4206640;28;5605;-71
2022/10/07 15:44:28;;;;;;;;;;;;;;;21.51;57.19;97321.91;4193273;28;5630;-70
2022/10/07 15:46:31;;;;;;;;;;;;;;;21.51;57.67;97321.91;4207361;28;5727;-71
2022/10/07 15:48:34;;;;;;;;;;;;;;;21.50;57.19;97314.91;4205376;28;5704;-71
2022/10/07 15:50:37;;;;;;;;;;;;;;;21.50;57.67;97317.59;4204299;28;5722;-71
2022/10/07 15:52:41;;;;;;;;;;;;;;;21.51;57.35;97313.03;4210837;28;5825;-71
2022/10/07 15:54:45;;;;;;;;;;;;;;;21.50;57.74;97309.53;4199483;28;5733;-71
2022/10/07 15:56:49;;;;;;;;;;;;;;;21.53;57.88;97307.44;4210685;28;5237;-71
2022/10/07 15:58:52;;;;;;;;;;;;;;;21.51;57.63;97311.16;4208093;28;5112;-71